createdAt,value
2017-02-16T00:00:28.762Z,61.04
2017-02-16T00:01:29.121Z,61.04
2017-02-16T00:02:29.176Z,61.04
2017-02-16T00:03:29.150Z,61.14
2017-02-16T00:04:28.795Z,61.04
2017-02-16T00:05:29.163Z,61.23
2017-02-16T00:06:29.178Z,61.04
2017-02-16T00:07:29.223Z,61.04
2017-02-16T00:08:29.273Z,61.23
2017-02-16T00:09:29.228Z,61.14
2017-02-16T00:10:29.224Z,61.42
2017-02-16T00:11:29.257Z,61.23
2017-02-16T00:12:29.298Z,61.42
2017-02-16T00:13:29.274Z,61.14
2017-02-16T00:14:29.285Z,61.42
2017-02-16T00:15:29.302Z,61.23
2017-02-16T00:16:29.305Z,61.3
2017-02-16T00:17:29.376Z,61.33
2017-02-16T00:18:29.337Z,61.14
2017-02-16T00:19:28.946Z,61.23
2017-02-16T00:20:29.363Z,61.14
2017-02-16T00:21:29.365Z,61.2
2017-02-16T00:22:29.022Z,61.23
2017-02-16T00:23:29.398Z,61.2
2017-02-16T00:24:29.003Z,61.23
2017-02-16T00:25:29.422Z,61.23
2017-02-16T00:26:29.427Z,61.3
2017-02-16T00:27:29.481Z,61.39
2017-02-16T00:28:29.519Z,61.3
2017-02-16T00:29:29.467Z,61.01
2017-02-16T00:30:29.495Z,61.14
2017-02-16T00:31:29.091Z,61.3
2017-02-16T00:32:29.504Z,61.58
2017-02-16T00:33:29.108Z,61.58
2017-02-16T00:34:29.561Z,61.68
2017-02-16T00:35:29.148Z,61.68
2017-02-16T00:36:29.553Z,61.68
2017-02-16T00:37:29.570Z,61.58
2017-02-16T00:38:29.581Z,61.58
2017-02-16T00:39:29.649Z,61.3
2017-02-16T00:40:29.648Z,61.2
2017-02-16T00:41:29.614Z,61.39
2017-02-16T00:42:29.649Z,61.39
2017-02-16T00:43:29.633Z,61.49
2017-02-16T00:44:29.663Z,61.49
2017-02-16T00:45:29.759Z,61.49
2017-02-16T00:46:29.669Z,61.49
2017-02-16T00:47:29.304Z,61.58
2017-02-16T00:48:29.687Z,61.39
2017-02-16T00:49:29.707Z,61.49
2017-02-16T00:50:29.313Z,61.49
2017-02-16T00:51:29.318Z,61.39
2017-02-16T00:52:29.352Z,61.49
2017-02-16T00:53:29.745Z,61.3
2017-02-16T00:54:29.780Z,61.49
2017-02-16T00:55:29.769Z,61.3
2017-02-16T00:56:29.781Z,61.87
2017-02-16T00:57:29.795Z,61.68
2017-02-16T00:58:29.818Z,61.77
2017-02-16T00:59:29.833Z,61.77
2017-02-16T01:00:29.840Z,61.58
2017-02-16T01:01:29.861Z,61.58
2017-02-16T01:02:29.864Z,61.58
2017-02-16T01:03:29.875Z,61.58
2017-02-16T01:04:29.890Z,61.68
2017-02-16T01:05:29.906Z,61.68
2017-02-16T01:06:29.918Z,61.77
2017-02-16T01:07:29.924Z,61.58
2017-02-16T01:08:29.946Z,61.68
2017-02-16T01:09:29.940Z,61.3
2017-02-16T01:10:30.072Z,61.68
2017-02-16T01:11:30.082Z,61.87
2017-02-16T01:12:30.072Z,61.77
2017-02-16T01:13:30.089Z,61.68
2017-02-16T01:14:30.097Z,61.39
2017-02-16T01:15:30.133Z,61.77
2017-02-16T01:16:30.144Z,61.77
2017-02-16T01:17:30.133Z,61.68
2017-02-16T01:18:29.659Z,61.77
2017-02-16T01:19:30.192Z,61.58
2017-02-16T01:20:30.113Z,61.77
2017-02-16T01:21:30.120Z,61.68
2017-02-16T01:22:30.125Z,61.77
2017-02-16T01:23:30.134Z,61.77
2017-02-16T01:24:30.137Z,61.39
2017-02-16T01:25:30.151Z,61.77
2017-02-16T01:26:30.208Z,61.58
2017-02-16T01:27:30.214Z,61.87
2017-02-16T01:28:30.221Z,61.68
2017-02-16T01:29:30.227Z,61.77
2017-02-16T01:30:30.235Z,61.87
2017-02-16T01:31:30.287Z,61.77
2017-02-16T01:32:30.291Z,61.77
2017-02-16T01:33:30.339Z,61.77
2017-02-16T01:34:30.338Z,61.77
2017-02-16T01:35:30.342Z,61.87
2017-02-16T01:36:30.334Z,61.87
2017-02-16T01:37:30.343Z,61.87
2017-02-16T01:38:30.397Z,61.77
2017-02-16T01:39:30.415Z,61.77
2017-02-16T01:40:30.423Z,61.87
2017-02-16T01:41:30.414Z,61.49
2017-02-16T01:42:30.425Z,61.87
2017-02-16T01:43:30.456Z,61.49
2017-02-16T01:44:30.451Z,61.77
2017-02-16T01:45:30.569Z,61.87
2017-02-16T01:46:30.561Z,61.68
2017-02-16T01:47:30.567Z,62.24
2017-02-16T01:48:30.563Z,62.05
2017-02-16T01:49:30.575Z,62.05
2017-02-16T01:50:30.437Z,62.24
2017-02-16T01:51:30.459Z,62.53
2017-02-16T01:52:30.459Z,62.43
2017-02-16T01:53:30.474Z,62.43
2017-02-16T01:54:30.495Z,62.43
2017-02-16T01:55:30.496Z,62.43
2017-02-16T01:56:30.509Z,62.15
2017-02-16T01:57:30.523Z,62.34
2017-02-16T01:58:30.542Z,62.24
2017-02-16T01:59:30.535Z,62.24
2017-02-16T02:00:30.557Z,62.34
2017-02-16T02:01:30.567Z,62.24
2017-02-16T02:02:30.581Z,62.24
2017-02-16T02:03:30.583Z,62.43
2017-02-16T02:04:30.594Z,62.34
2017-02-16T02:05:30.621Z,62.34
2017-02-16T02:06:30.627Z,62.34
2017-02-16T02:07:30.654Z,62.15
2017-02-16T02:08:30.651Z,62.24
2017-02-16T02:09:30.666Z,62.34
2017-02-16T02:10:30.675Z,62.24
2017-02-16T02:11:30.698Z,62.34
2017-02-16T02:12:30.692Z,62.34
2017-02-16T02:13:30.314Z,62.34
2017-02-16T02:14:30.720Z,62.15
2017-02-16T02:15:30.738Z,62.24
2017-02-16T02:16:30.737Z,62.34
2017-02-16T02:17:30.761Z,62.24
2017-02-16T02:18:30.773Z,62.24
2017-02-16T02:19:30.774Z,62.43
2017-02-16T02:20:30.390Z,62.15
2017-02-16T02:21:30.806Z,62.24
2017-02-16T02:22:30.834Z,62.24
2017-02-16T02:23:30.829Z,62.24
2017-02-16T02:24:30.842Z,62.05
2017-02-16T02:25:30.847Z,62.05
2017-02-16T02:26:30.969Z,62.05
2017-02-16T02:27:30.968Z,62.15
2017-02-16T02:28:30.488Z,61.87
2017-02-16T02:29:30.887Z,62.34
2017-02-16T02:30:30.964Z,62.34
2017-02-16T02:31:30.922Z,61.87
2017-02-16T02:32:30.978Z,62.15
2017-02-16T02:33:30.980Z,62.15
2017-02-16T02:34:31.070Z,62.62
2017-02-16T02:35:30.997Z,62.24
2017-02-16T02:36:31.005Z,62.34
2017-02-16T02:37:31.012Z,62.4
2017-02-16T02:38:31.021Z,62.43
2017-02-16T02:39:31.113Z,62.4
2017-02-16T02:40:31.117Z,62.4
2017-02-16T02:41:31.127Z,62.34
2017-02-16T02:42:31.128Z,62.43
2017-02-16T02:43:31.136Z,62.4
2017-02-16T02:44:31.143Z,62.31
2017-02-16T02:45:31.154Z,62.34
2017-02-16T02:46:31.162Z,62.5
2017-02-16T02:47:31.161Z,62.53
2017-02-16T02:48:30.722Z,62.62
2017-02-16T02:49:31.181Z,62.31
2017-02-16T02:50:31.185Z,62.31
2017-02-16T02:51:31.240Z,62.5
2017-02-16T02:52:31.235Z,62.02
2017-02-16T02:53:31.234Z,62.02
2017-02-16T02:54:31.303Z,62.21
2017-02-16T02:55:31.305Z,62.31
2017-02-16T02:56:31.321Z,62.12
2017-02-16T02:57:31.306Z,62.5
2017-02-16T02:58:31.060Z,62.12
2017-02-16T02:59:31.469Z,62.15
2017-02-16T03:00:31.478Z,62.4
2017-02-16T03:01:31.487Z,62.4
2017-02-16T03:02:31.483Z,62.4
2017-02-16T03:03:31.459Z,62.4
2017-02-16T03:04:31.499Z,62.31
2017-02-16T03:05:31.508Z,62.21
2017-02-16T03:06:31.524Z,62.4
2017-02-16T03:07:31.521Z,62.12
2017-02-16T03:08:31.529Z,62.59
2017-02-16T03:09:31.539Z,62.59
2017-02-16T03:10:31.663Z,62.5
2017-02-16T03:11:31.580Z,62.5
2017-02-16T03:12:31.590Z,62.21
2017-02-16T03:13:31.601Z,62.59
2017-02-16T03:14:31.606Z,62.69
2017-02-16T03:15:31.614Z,62.59
2017-02-16T03:16:31.621Z,62.78
2017-02-16T03:17:31.631Z,62.5
2017-02-16T03:18:31.637Z,62.5
2017-02-16T03:19:31.648Z,62.31
2017-02-16T03:20:31.729Z,62.69
2017-02-16T03:21:31.653Z,62.5
2017-02-16T03:22:31.664Z,62.69
2017-02-16T03:23:31.619Z,63.07
2017-02-16T03:24:31.628Z,62.97
2017-02-16T03:25:31.663Z,62.78
2017-02-16T03:26:31.636Z,63.07
2017-02-16T03:27:31.646Z,63.07
2017-02-16T03:28:31.643Z,63.07
2017-02-16T03:29:31.688Z,62.78
2017-02-16T03:30:31.700Z,63.07
2017-02-16T03:31:31.689Z,63.07
2017-02-16T03:32:31.696Z,62.97
2017-02-16T03:33:31.690Z,62.97
2017-02-16T03:34:31.697Z,63.07
2017-02-16T03:35:31.766Z,62.69
2017-02-16T03:36:31.725Z,63.17
2017-02-16T03:37:31.729Z,63.35
2017-02-16T03:38:31.693Z,63.45
2017-02-16T03:39:31.708Z,63.35
2017-02-16T03:40:31.729Z,63.26
2017-02-16T03:41:31.737Z,63.26
2017-02-16T03:42:31.747Z,63.45
2017-02-16T03:43:31.764Z,63.35
2017-02-16T03:44:31.758Z,63.45
2017-02-16T03:45:31.787Z,63.45
2017-02-16T03:46:31.795Z,63.54
2017-02-16T03:47:31.796Z,63.54
2017-02-16T03:48:31.817Z,63.45
2017-02-16T03:49:31.827Z,63.07
2017-02-16T03:50:31.834Z,63.17
2017-02-16T03:51:31.840Z,63.26
2017-02-16T03:52:31.866Z,63.26
2017-02-16T03:53:31.863Z,63.26
2017-02-16T03:54:31.892Z,63.35
2017-02-16T03:55:31.894Z,63.45
2017-02-16T03:56:31.903Z,63.17
2017-02-16T03:57:31.915Z,63.45
2017-02-16T03:58:31.928Z,63.07
2017-02-16T03:59:31.538Z,63.17
2017-02-16T04:00:31.957Z,63.17
2017-02-16T04:01:31.957Z,63.17
2017-02-16T04:02:31.963Z,63.64
2017-02-16T04:03:31.581Z,63.35
2017-02-16T04:04:32.001Z,63.54
2017-02-16T04:05:31.603Z,63.64
2017-02-16T04:06:32.035Z,63.64
2017-02-16T04:07:32.021Z,63.64
2017-02-16T04:08:32.042Z,63.64
2017-02-16T04:09:32.056Z,63.64
2017-02-16T04:10:32.168Z,63.45
2017-02-16T04:11:32.069Z,63.64
2017-02-16T04:12:32.105Z,62.97
2017-02-16T04:13:32.112Z,63.45
2017-02-16T04:14:32.107Z,63.45
2017-02-16T04:15:32.134Z,62.97
2017-02-16T04:16:32.131Z,63.73
2017-02-16T04:17:32.137Z,63.45
2017-02-16T04:18:32.178Z,63.45
2017-02-16T04:19:32.161Z,63.26
2017-02-16T04:20:32.186Z,63.26
2017-02-16T04:21:32.202Z,63.26
2017-02-16T04:22:32.197Z,63.26
2017-02-16T04:23:32.203Z,63.17
2017-02-16T04:24:32.222Z,63.26
2017-02-16T04:25:32.238Z,63.17
2017-02-16T04:26:32.245Z,63.26
2017-02-16T04:27:32.247Z,63.26
2017-02-16T04:28:32.266Z,63.17
2017-02-16T04:29:32.281Z,63.26
2017-02-16T04:30:32.283Z,63.26
2017-02-16T04:31:32.300Z,63.45
2017-02-16T04:32:32.306Z,63.45
2017-02-16T04:33:32.316Z,63.35
2017-02-16T04:34:32.349Z,63.45
2017-02-16T04:35:32.348Z,63.45
2017-02-16T04:36:32.375Z,63.35
2017-02-16T04:37:32.374Z,63.45
2017-02-16T04:38:32.396Z,63.45
2017-02-16T04:39:32.393Z,63.54
2017-02-16T04:40:32.513Z,63.54
2017-02-16T04:41:32.519Z,63.54
2017-02-16T04:42:32.530Z,63.64
2017-02-16T04:43:32.521Z,63.35
2017-02-16T04:44:32.542Z,63.35
2017-02-16T04:45:32.575Z,63.54
2017-02-16T04:46:32.589Z,63.35
2017-02-16T04:47:32.559Z,63.54
2017-02-16T04:48:32.582Z,63.54
2017-02-16T04:49:32.599Z,63.54
2017-02-16T04:50:32.617Z,63.45
2017-02-16T04:51:32.209Z,63.54
2017-02-16T04:52:32.222Z,63.54
2017-02-16T04:53:32.622Z,63.54
2017-02-16T04:54:32.158Z,63.82
2017-02-16T04:55:32.572Z,63.64
2017-02-16T04:56:32.593Z,63.45
2017-02-16T04:57:32.597Z,63.64
2017-02-16T04:58:32.608Z,63.73
2017-02-16T04:59:32.635Z,63.73
2017-02-16T05:00:32.628Z,63.73
2017-02-16T05:01:32.646Z,63.82
2017-02-16T05:02:32.815Z,63.73
2017-02-16T05:03:32.664Z,63.73
2017-02-16T05:04:32.669Z,63.64
2017-02-16T05:05:32.693Z,63.82
2017-02-16T05:06:32.709Z,63.82
2017-02-16T05:07:32.709Z,63.82
2017-02-16T05:08:32.719Z,63.82
2017-02-16T05:09:32.730Z,63.64
2017-02-16T05:10:32.983Z,63.73
2017-02-16T05:11:32.796Z,63.82
2017-02-16T05:12:32.765Z,63.82
2017-02-16T05:13:32.784Z,63.64
2017-02-16T05:14:32.784Z,63.54
2017-02-16T05:15:32.406Z,63.82
2017-02-16T05:16:32.803Z,63.82
2017-02-16T05:17:32.814Z,63.92
2017-02-16T05:18:32.834Z,63.73
2017-02-16T05:19:32.847Z,63.92
2017-02-16T05:20:32.865Z,63.82
2017-02-16T05:21:32.867Z,63.64
2017-02-16T05:22:32.873Z,64.2
2017-02-16T05:23:32.493Z,64.2
2017-02-16T05:24:32.898Z,64.3
2017-02-16T05:25:33.134Z,64.2
2017-02-16T05:26:32.932Z,64.3
2017-02-16T05:27:32.930Z,63.92
2017-02-16T05:28:32.949Z,63.92
2017-02-16T05:29:32.954Z,63.92
2017-02-16T05:30:32.967Z,63.92
2017-02-16T05:31:32.979Z,63.92
2017-02-16T05:32:32.980Z,63.92
2017-02-16T05:33:32.999Z,63.73
2017-02-16T05:34:33.008Z,63.82
2017-02-16T05:35:32.632Z,63.92
2017-02-16T05:36:32.633Z,63.82
2017-02-16T05:37:33.048Z,63.82
2017-02-16T05:38:33.054Z,64.11
2017-02-16T05:39:33.067Z,63.92
2017-02-16T05:40:33.078Z,63.82
2017-02-16T05:41:33.087Z,64.4
2017-02-16T05:42:32.701Z,63.73
2017-02-16T05:43:32.715Z,63.73
2017-02-16T05:44:33.127Z,64.4
2017-02-16T05:45:33.131Z,64.3
2017-02-16T05:46:33.142Z,64.3
2017-02-16T05:47:33.156Z,64.68
2017-02-16T05:48:33.167Z,64.49
2017-02-16T05:49:33.185Z,64.3
2017-02-16T05:50:33.195Z,64.4
2017-02-16T05:51:33.203Z,64.2
2017-02-16T05:52:33.222Z,64.4
2017-02-16T05:53:33.239Z,64.49
2017-02-16T05:54:33.239Z,64.4
2017-02-16T05:55:33.238Z,64.01
2017-02-16T05:56:33.254Z,63.92
2017-02-16T05:57:33.266Z,64.11
2017-02-16T05:58:33.271Z,64.01
2017-02-16T05:59:33.294Z,64.01
2017-02-16T06:00:33.302Z,64.11
2017-02-16T06:01:33.310Z,64.4
2017-02-16T06:02:33.315Z,64.3
2017-02-16T06:03:33.354Z,64.4
2017-02-16T06:04:33.357Z,64.4
2017-02-16T06:05:33.360Z,64.2
2017-02-16T06:06:33.378Z,64.3
2017-02-16T06:07:33.381Z,64.11
2017-02-16T06:08:33.392Z,64.4
2017-02-16T06:09:33.402Z,64.11
2017-02-16T06:10:33.411Z,64.3
2017-02-16T06:11:33.430Z,64.3
2017-02-16T06:12:33.426Z,64.11
2017-02-16T06:13:33.448Z,64.4
2017-02-16T06:14:33.469Z,64.4
2017-02-16T06:15:33.476Z,64.3
2017-02-16T06:16:33.481Z,64.68
2017-02-16T06:17:33.484Z,64.59
2017-02-16T06:18:33.501Z,64.2
2017-02-16T06:19:33.527Z,64.59
2017-02-16T06:20:33.525Z,64.87
2017-02-16T06:21:33.542Z,64.68
2017-02-16T06:22:33.545Z,64.97
2017-02-16T06:23:33.566Z,64.59
2017-02-16T06:24:33.562Z,64.78
2017-02-16T06:25:33.629Z,64.68
2017-02-16T06:26:33.594Z,64.68
2017-02-16T06:27:33.607Z,65.16
2017-02-16T06:28:33.609Z,64.78
2017-02-16T06:29:33.618Z,64.78
2017-02-16T06:30:33.634Z,64.11
2017-02-16T06:31:33.644Z,64.87
2017-02-16T06:32:33.667Z,64.87
2017-02-16T06:33:33.759Z,65.16
2017-02-16T06:34:33.680Z,65.16
2017-02-16T06:35:33.685Z,65.16
2017-02-16T06:36:33.706Z,65.25
2017-02-16T06:37:33.932Z,65.06
2017-02-16T06:38:33.722Z,65.06
2017-02-16T06:39:33.735Z,65.06
2017-02-16T06:40:33.752Z,65.16
2017-02-16T06:41:33.756Z,65.06
2017-02-16T06:42:33.868Z,64.97
2017-02-16T06:43:33.883Z,64.68
2017-02-16T06:44:33.881Z,64.78
2017-02-16T06:45:33.798Z,64.78
2017-02-16T06:46:33.908Z,64.87
2017-02-16T06:47:33.917Z,64.87
2017-02-16T06:48:33.829Z,64.97
2017-02-16T06:49:33.869Z,64.97
2017-02-16T06:50:33.950Z,64.97
2017-02-16T06:51:33.860Z,64.3
2017-02-16T06:52:33.879Z,64.87
2017-02-16T06:53:33.890Z,64.68
2017-02-16T06:54:33.898Z,64.68
2017-02-16T06:55:33.918Z,64.78
2017-02-16T06:56:33.924Z,64.78
2017-02-16T06:57:33.540Z,64.78
2017-02-16T06:58:33.944Z,64.68
2017-02-16T06:59:34.005Z,64.78
2017-02-16T07:00:33.971Z,65.25
2017-02-16T07:01:33.983Z,65.44
2017-02-16T07:02:33.989Z,65.34
2017-02-16T07:03:33.999Z,65.34
2017-02-16T07:04:34.008Z,65.44
2017-02-16T07:05:34.029Z,65.34
2017-02-16T07:06:34.029Z,65.34
2017-02-16T07:07:34.043Z,65.34
2017-02-16T07:08:34.067Z,65.25
2017-02-16T07:09:34.069Z,64.97
2017-02-16T07:10:34.083Z,65.16
2017-02-16T07:11:34.093Z,65.25
2017-02-16T07:12:34.097Z,65.06
2017-02-16T07:13:34.120Z,65.34
2017-02-16T07:14:34.121Z,65.63
2017-02-16T07:15:34.138Z,65.72
2017-02-16T07:16:34.136Z,65.16
2017-02-16T07:17:34.146Z,65.44
2017-02-16T07:18:34.163Z,65.72
2017-02-16T07:19:34.184Z,65.53
2017-02-16T07:20:34.238Z,65.53
2017-02-16T07:21:34.198Z,65.63
2017-02-16T07:22:34.209Z,65.53
2017-02-16T07:23:34.218Z,65.72
2017-02-16T07:24:34.231Z,65.63
2017-02-16T07:25:34.238Z,65.53
2017-02-16T07:26:34.256Z,65.53
2017-02-16T07:27:34.255Z,65.53
2017-02-16T07:28:34.271Z,65.44
2017-02-16T07:29:34.288Z,65.63
2017-02-16T07:30:34.295Z,65.25
2017-02-16T07:31:34.314Z,65.53
2017-02-16T07:32:34.320Z,65.34
2017-02-16T07:33:34.338Z,65.34
2017-02-16T07:34:34.345Z,65.34
2017-02-16T07:35:34.357Z,65.82
2017-02-16T07:36:34.377Z,65.53
2017-02-16T07:37:34.387Z,65.63
2017-02-16T07:38:34.385Z,65.72
2017-02-16T07:39:34.389Z,65.72
2017-02-16T07:40:34.453Z,65.34
2017-02-16T07:41:34.421Z,65.25
2017-02-16T07:42:34.433Z,65.91
2017-02-16T07:43:34.454Z,65.63
2017-02-16T07:44:34.451Z,65.44
2017-02-16T07:45:34.452Z,65.44
2017-02-16T07:46:34.587Z,65.63
2017-02-16T07:47:34.482Z,65.44
2017-02-16T07:48:34.490Z,65.34
2017-02-16T07:49:34.108Z,65.34
2017-02-16T07:50:34.534Z,65.53
2017-02-16T07:51:34.527Z,65.34
2017-02-16T07:52:34.545Z,65.53
2017-02-16T07:53:34.558Z,65.53
2017-02-16T07:54:34.574Z,65.53
2017-02-16T07:55:34.573Z,65.53
2017-02-16T07:56:34.596Z,65.91
2017-02-16T07:57:34.597Z,65.53
2017-02-16T07:58:34.610Z,65.63
2017-02-16T07:59:34.640Z,65.44
2017-02-16T08:00:34.629Z,65.66
2017-02-16T08:01:34.639Z,65.16
2017-02-16T08:02:34.653Z,65.34
2017-02-16T08:03:34.268Z,65.44
2017-02-16T08:04:34.675Z,65.53
2017-02-16T08:05:34.683Z,65.47
2017-02-16T08:06:34.698Z,65.47
2017-02-16T08:07:34.703Z,65.56
2017-02-16T08:08:34.721Z,65.75
2017-02-16T08:09:34.732Z,65.66
2017-02-16T08:10:34.735Z,65.56
2017-02-16T08:11:34.746Z,65.66
2017-02-16T08:12:34.760Z,65.75
2017-02-16T08:13:34.786Z,65.09
2017-02-16T08:14:34.793Z,65.28
2017-02-16T08:15:34.801Z,65.19
2017-02-16T08:16:34.821Z,64.71
2017-02-16T08:17:34.816Z,65.19
2017-02-16T08:18:34.830Z,65
2017-02-16T08:19:34.845Z,65.19
2017-02-16T08:20:34.866Z,65.37
2017-02-16T08:21:34.871Z,65.19
2017-02-16T08:22:34.877Z,65.28
2017-02-16T08:23:34.895Z,65.28
2017-02-16T08:24:34.892Z,65
2017-02-16T08:25:34.913Z,64.9
2017-02-16T08:26:34.929Z,65.28
2017-02-16T08:27:34.933Z,64.9
2017-02-16T08:28:34.944Z,65.28
2017-02-16T08:29:34.559Z,65.19
2017-02-16T08:30:34.966Z,65.19
2017-02-16T08:31:34.979Z,65.09
2017-02-16T08:32:35.011Z,64.9
2017-02-16T08:33:35.027Z,64.9
2017-02-16T08:34:35.024Z,65.28
2017-02-16T08:35:35.025Z,64.81
2017-02-16T08:36:35.035Z,64.81
2017-02-16T08:37:35.058Z,65.37
2017-02-16T08:38:35.062Z,65.28
2017-02-16T08:39:35.080Z,65.41
2017-02-16T08:40:35.086Z,65.41
2017-02-16T08:41:35.092Z,65.5
2017-02-16T08:42:35.107Z,65.5
2017-02-16T08:43:35.117Z,65.22
2017-02-16T08:44:35.129Z,65.41
2017-02-16T08:45:35.137Z,65.41
2017-02-16T08:46:35.150Z,65.41
2017-02-16T08:47:35.162Z,65.41
2017-02-16T08:48:35.173Z,65.41
2017-02-16T08:49:35.177Z,65.41
2017-02-16T08:50:35.196Z,65.5
2017-02-16T08:51:35.214Z,65.6
2017-02-16T08:52:35.221Z,65.41
2017-02-16T08:53:35.228Z,65.41
2017-02-16T08:54:35.245Z,65.22
2017-02-16T08:55:35.247Z,64.75
2017-02-16T08:56:35.266Z,65.03
2017-02-16T08:57:34.877Z,64.84
2017-02-16T08:58:35.292Z,64.46
2017-02-16T08:59:34.900Z,65.12
2017-02-16T09:00:35.304Z,64.94
2017-02-16T09:01:35.323Z,64.84
2017-02-16T09:02:35.336Z,65.12
2017-02-16T09:03:35.347Z,65.22
2017-02-16T09:04:35.363Z,65.31
2017-02-16T09:05:35.366Z,65.12
2017-02-16T09:06:35.372Z,64.94
2017-02-16T09:07:35.401Z,64.59
2017-02-16T09:08:35.418Z,64.69
2017-02-16T09:09:35.408Z,64.87
2017-02-16T09:10:35.027Z,65.06
2017-02-16T09:11:35.441Z,65.44
2017-02-16T09:12:35.466Z,65.63
2017-02-16T09:13:35.465Z,65.06
2017-02-16T09:14:35.485Z,65.35
2017-02-16T09:15:35.571Z,65.44
2017-02-16T09:16:35.577Z,64.87
2017-02-16T09:17:35.519Z,64.49
2017-02-16T09:18:35.525Z,64.87
2017-02-16T09:19:35.532Z,64.78
2017-02-16T09:20:35.550Z,64.78
2017-02-16T09:21:35.558Z,64.4
2017-02-16T09:22:35.580Z,65.25
2017-02-16T09:23:35.588Z,64.3
2017-02-16T09:24:35.610Z,64.87
2017-02-16T09:25:35.616Z,64.69
2017-02-16T09:26:35.611Z,65.06
2017-02-16T09:27:35.636Z,64.62
2017-02-16T09:28:35.645Z,64.14
2017-02-16T09:29:35.660Z,64.78
2017-02-16T09:30:35.662Z,64.05
2017-02-16T09:31:35.692Z,64.24
2017-02-16T09:32:35.697Z,64.62
2017-02-16T09:33:35.697Z,64.24
2017-02-16T09:34:35.715Z,64.62
2017-02-16T09:35:35.730Z,64.14
2017-02-16T09:36:35.735Z,64.05
2017-02-16T09:37:35.754Z,64.14
2017-02-16T09:38:35.767Z,63.86
2017-02-16T09:39:35.788Z,63.95
2017-02-16T09:40:35.801Z,63.76
2017-02-16T09:41:35.801Z,63.86
2017-02-16T09:42:35.815Z,63.95
2017-02-16T09:43:35.831Z,63.67
2017-02-16T09:44:35.838Z,63.2
2017-02-16T09:45:35.851Z,63.57
2017-02-16T09:46:35.854Z,63.1
2017-02-16T09:47:35.879Z,63.57
2017-02-16T09:48:35.487Z,63.67
2017-02-16T09:49:35.907Z,63.57
2017-02-16T09:50:36.014Z,63.29
2017-02-16T09:51:35.917Z,63.29
2017-02-16T09:52:35.939Z,63.29
2017-02-16T09:53:35.551Z,63.48
2017-02-16T09:54:35.572Z,63.67
2017-02-16T09:55:35.568Z,63.13
2017-02-16T09:56:35.989Z,63.23
2017-02-16T09:57:35.607Z,62.94
2017-02-16T09:58:36.022Z,62.94
2017-02-16T09:59:36.022Z,62.75
2017-02-16T10:00:36.039Z,62.56
2017-02-16T10:01:36.133Z,62.75
2017-02-16T10:02:36.059Z,62.65
2017-02-16T10:03:36.075Z,62.37
2017-02-16T10:04:36.091Z,62.85
2017-02-16T10:05:36.102Z,62.56
2017-02-16T10:06:36.126Z,62.56
2017-02-16T10:07:36.147Z,62.94
2017-02-16T10:08:36.128Z,62.65
2017-02-16T10:09:36.157Z,62.75
2017-02-16T10:10:36.166Z,62.65
2017-02-16T10:11:36.196Z,62.56
2017-02-16T10:12:36.191Z,62.65
2017-02-16T10:13:36.200Z,62.75
2017-02-16T10:14:36.207Z,63.04
2017-02-16T10:15:36.231Z,62.88
2017-02-16T10:16:36.237Z,62.97
2017-02-16T10:17:35.850Z,62.78
2017-02-16T10:18:36.265Z,62.4
2017-02-16T10:19:36.283Z,62.21
2017-02-16T10:20:36.285Z,62.49
2017-02-16T10:21:36.311Z,62.49
2017-02-16T10:22:36.359Z,62.21
2017-02-16T10:23:36.445Z,62.69
2017-02-16T10:24:36.443Z,61.83
2017-02-16T10:25:35.966Z,61.93
2017-02-16T10:26:36.490Z,62.02
2017-02-16T10:27:36.498Z,61.93
2017-02-16T10:28:36.436Z,61.83
2017-02-16T10:29:36.444Z,61.83
2017-02-16T10:30:36.413Z,61.55
2017-02-16T10:31:36.506Z,61.86
2017-02-16T10:32:36.514Z,61.96
2017-02-16T10:33:36.573Z,61.86
2017-02-16T10:34:36.555Z,61.67
2017-02-16T10:35:36.592Z,61.38
2017-02-16T10:36:36.502Z,61.58
2017-02-16T10:37:36.585Z,60.91
2017-02-16T10:38:36.596Z,60.91
2017-02-16T10:39:36.163Z,61.19
2017-02-16T10:40:36.569Z,60.72
2017-02-16T10:41:36.600Z,60.82
2017-02-16T10:42:36.576Z,60.53
2017-02-16T10:43:36.618Z,61
2017-02-16T10:44:36.605Z,60.82
2017-02-16T10:45:36.615Z,60.82
2017-02-16T10:46:36.631Z,61.1
2017-02-16T10:47:36.647Z,61.1
2017-02-16T10:48:36.653Z,61.1
2017-02-16T10:49:36.675Z,60.82
2017-02-16T10:50:36.689Z,60.94
2017-02-16T10:51:36.707Z,60.94
2017-02-16T10:52:36.719Z,60.18
2017-02-16T10:53:36.731Z,60.56
2017-02-16T10:54:36.755Z,60.56
2017-02-16T10:55:36.768Z,60.08
2017-02-16T10:56:36.806Z,59.99
2017-02-16T10:57:36.772Z,60.27
2017-02-16T10:58:36.801Z,60.08
2017-02-16T10:59:36.817Z,59.99
2017-02-16T11:00:36.816Z,60.18
2017-02-16T11:01:36.866Z,59.8
2017-02-16T11:02:36.854Z,59.99
2017-02-16T11:03:36.896Z,60.18
2017-02-16T11:04:36.879Z,60.08
2017-02-16T11:05:36.921Z,59.99
2017-02-16T11:06:36.900Z,60.08
2017-02-16T11:07:36.922Z,59.54
2017-02-16T11:08:36.937Z,59.64
2017-02-16T11:09:36.951Z,59.83
2017-02-16T11:10:36.976Z,59.64
2017-02-16T11:11:36.999Z,59.45
2017-02-16T11:12:36.985Z,59.26
2017-02-16T11:13:37.041Z,59.16
2017-02-16T11:14:37.021Z,59.16
2017-02-16T11:15:37.072Z,59.06
2017-02-16T11:16:37.049Z,59.45
2017-02-16T11:17:37.065Z,58.87
2017-02-16T11:18:37.068Z,59.64
2017-02-16T11:19:37.086Z,58.78
2017-02-16T11:20:37.107Z,58.87
2017-02-16T11:21:37.138Z,58.87
2017-02-16T11:22:37.128Z,58.97
2017-02-16T11:23:37.158Z,59.16
2017-02-16T11:24:37.161Z,58.62
2017-02-16T11:25:37.212Z,58.52
2017-02-16T11:26:37.205Z,58.52
2017-02-16T11:27:37.230Z,58.81
2017-02-16T11:28:36.834Z,58.62
2017-02-16T11:29:37.227Z,58.14
2017-02-16T11:30:37.255Z,58.52
2017-02-16T11:31:37.287Z,58.62
2017-02-16T11:32:37.280Z,58.91
2017-02-16T11:33:37.311Z,58.52
2017-02-16T11:34:37.308Z,58.43
2017-02-16T11:35:37.335Z,57.76
2017-02-16T11:36:37.328Z,57.95
2017-02-16T11:37:37.386Z,58.04
2017-02-16T11:38:37.357Z,57.67
2017-02-16T11:39:37.400Z,58.14
2017-02-16T11:40:37.397Z,57.86
2017-02-16T11:41:37.428Z,57.67
2017-02-16T11:42:37.441Z,57.48
2017-02-16T11:43:37.481Z,57.57
2017-02-16T11:44:37.448Z,57.6
2017-02-16T11:45:37.493Z,57.48
2017-02-16T11:46:37.487Z,57.6
2017-02-16T11:47:37.533Z,57.79
2017-02-16T11:48:37.519Z,57.7
2017-02-16T11:49:37.569Z,57.98
2017-02-16T11:50:37.550Z,57.79
2017-02-16T11:51:37.554Z,57.89
2017-02-16T11:52:37.585Z,58.17
2017-02-16T11:53:37.618Z,58.36
2017-02-16T11:54:37.712Z,58.46
2017-02-16T11:55:37.823Z,58.55
2017-02-16T11:56:37.831Z,58.65
2017-02-16T11:57:37.652Z,58.75
2017-02-16T11:58:37.668Z,58.65
2017-02-16T11:59:37.683Z,58.65
2017-02-16T12:00:37.698Z,58.65
2017-02-16T12:01:37.712Z,58.55
2017-02-16T12:02:37.728Z,58.58
2017-02-16T12:03:37.748Z,58.55
2017-02-16T12:04:37.752Z,58.87
2017-02-16T12:05:37.769Z,58.68
2017-02-16T12:06:37.803Z,58.77
2017-02-16T12:07:37.807Z,58.68
2017-02-16T12:08:37.819Z,58.48
2017-02-16T12:09:37.864Z,58.58
2017-02-16T12:10:37.853Z,58.58
2017-02-16T12:11:37.862Z,58.58
2017-02-16T12:12:37.881Z,58.29
2017-02-16T12:13:37.901Z,58.39
2017-02-16T12:14:37.904Z,58.58
2017-02-16T12:15:37.933Z,58.2
2017-02-16T12:16:37.949Z,58.11
2017-02-16T12:17:37.969Z,57.72
2017-02-16T12:18:37.972Z,58.01
2017-02-16T12:19:37.600Z,57.63
2017-02-16T12:20:38.026Z,57.82
2017-02-16T12:21:37.634Z,57.82
2017-02-16T12:22:38.044Z,57.72
2017-02-16T12:23:38.057Z,57.34
2017-02-16T12:24:38.068Z,57.94
2017-02-16T12:25:38.222Z,57.85
2017-02-16T12:26:38.107Z,57.65
2017-02-16T12:27:38.119Z,57.94
2017-02-16T12:28:38.139Z,57.56
2017-02-16T12:29:38.160Z,57.85
2017-02-16T12:30:38.169Z,57.28
2017-02-16T12:31:38.201Z,57.37
2017-02-16T12:32:38.199Z,57.46
2017-02-16T12:33:38.209Z,57.28
2017-02-16T12:34:38.231Z,56.99
2017-02-16T12:35:38.180Z,57.28
2017-02-16T12:36:37.889Z,57.46
2017-02-16T12:37:38.303Z,56.99
2017-02-16T12:38:38.377Z,57.18
2017-02-16T12:39:38.338Z,57.18
2017-02-16T12:40:38.345Z,57.46
2017-02-16T12:41:38.344Z,57.09
2017-02-16T12:42:38.358Z,57.18
2017-02-16T12:43:38.382Z,57.56
2017-02-16T12:44:38.398Z,57.28
2017-02-16T12:45:38.408Z,57.5
2017-02-16T12:46:38.437Z,57.11
2017-02-16T12:47:38.449Z,57.28
2017-02-16T12:48:38.454Z,57.21
2017-02-16T12:49:38.470Z,56.92
2017-02-16T12:50:38.482Z,57.02
2017-02-16T12:51:38.504Z,56.92
2017-02-16T12:52:38.537Z,57.21
2017-02-16T12:53:38.537Z,57.02
2017-02-16T12:54:38.569Z,56.45
2017-02-16T12:55:38.569Z,56.25